South Mason Valley, Nevada Weather observations

Data are for 10 minute period ending at time listed.
 Day   Time   Solar   Ave.   Ave.  Ave.  Vector  Max.   Baro.   Total    
  of    of     Rad.   Air    Rel.  Wind   Wind   Wind  Press.  Precip.   
Year   Day            Temp.  Hum.  Speed  Dir.   Gust                    
2015   (PST)  Kw/m2    F      %     mph   deg.    mph    mb.     in.     
-------------------------------------------------------------------------
 184   13:50   0.79   96.1    20    4.0    76     6.6   876.2    0.00 
 184   14:00   0.78   96.3    22    4.2    20     7.7   876.1    0.00 
 184   14:10   0.66   95.6    23    4.8     9     9.7   876.1    0.00 
 184   14:20   0.48   92.8    26    3.8   347     7.1   876.0    0.00 
 184   14:30   0.69   95.7    22    4.5    22     7.9   875.9    0.00 
 184   14:40   0.70   96.5    20    2.9   355     8.6   875.8    0.00 
 184   14:50   0.41   96.1    19    3.4   101    10.8   875.8    0.00 
 184   15:00   0.56   96.6    19    2.1   147     4.5   875.7    0.00 
 184   15:10   0.55   97.6    18    1.6   122     4.0   875.6    0.00 
 184   15:20   0.41   96.9    21    2.8   326     5.8   875.5    0.00 
 184   15:30   0.08   92.2    27    3.2   340     5.8   875.4    0.00 
 184   15:40   0.21   91.1    30    2.8     0     4.4   875.3    0.00 
 184   15:50   0.17   92.0    27    1.0   350     2.2   875.4    0.00 
 184   16:00   0.46   94.5    24    3.3   246    12.3   875.4    0.00 
 184   16:10   0.21   91.2    28   11.2   311    21.1   875.5    0.00 
 184   16:20   0.41   88.9    31   14.8   312    21.9   875.6    0.00 
 184   16:30   0.33   88.6    31   13.0   313    20.0   875.6    0.00 
 184   16:40   0.28   88.9    31   12.4   314    20.2   875.6    0.00 
 184   16:50   0.18   88.0    30   13.1   312    19.6   875.7    0.00 
 184   17:00   0.19   87.7    31   11.1   316    18.0   875.7    0.00 
 184   17:10   0.17   87.8    31   10.1   310    16.5   875.7    0.00 
 184   17:20   0.17   87.8    31   10.8   307    17.2   875.7    0.00 
 184   17:30   0.11   87.6    30   11.9   307    17.1   875.7    0.00 
 184   17:40   0.11   87.4    29   12.2   303    18.7   875.8    0.00 
 184   17:50   0.07   86.8    30   11.3   306    17.4   875.9    0.00 
 184   18:00   0.09   86.4    29   11.5   301    17.0   876.0    0.00 
 184   18:10   0.07   86.1    29   11.2   304    17.2   876.0    0.00 
 184   18:20   0.04   85.8    29   10.3   306    15.7   876.0    0.00 
 184   18:30   0.04   86.0    29    9.6   313    15.2   876.0    0.00 
 184   18:40   0.04   85.4    30    8.1   313    12.9   876.0    0.00 
 184   18:50   0.03   84.6    31    8.1   302    13.0   876.2    0.00 
 184   19:00   0.03   84.1    31    7.5   290    11.8   876.5    0.00 
 184   19:10   0.02   83.8    30    6.6   283    10.4   876.6    0.00 
 184   19:20   0.02   83.4    30    7.2   285    11.9   876.6    0.00 
 184   19:30   0.01   82.8    31    6.0   288     9.1   876.7    0.00 
 184   19:40   0.00   80.8    36    5.2   303     7.0   876.7    0.00 
 184   19:50   0.00   79.3    38    5.2   308     7.4   876.8    0.00 
 184   20:00   0.00   79.4    37    5.1   322     7.3   876.9    0.00 
 184   20:10   0.00   80.3    34    9.2   326    16.9   877.0    0.00 
 184   20:20   0.00   82.4    31   11.6   324    19.6   877.1    0.00 
 184   20:30   0.00   81.7    33    9.7   333    16.1   877.3    0.00 
 184   20:40   0.00   81.2    34    9.6   338    15.2   877.4    0.00 
 184   20:50   0.00   79.5    38    4.9   351     8.8   877.6    0.00 
 184   21:00   0.00   78.8    39    5.5    14     9.6   877.7    0.00 
 184   21:10   0.00   79.0    38    5.2     3     7.5   877.8    0.00 
 184   21:20   0.00   78.3    40    4.2   348     6.7   877.9    0.00 
 184   21:30   0.00   76.4    45    4.6   278     5.4   878.0    0.00 
 184   21:40   0.00   75.1    46    4.0   271     5.6   878.1    0.00 
 184   21:50   0.00   74.4    48    4.1   287     5.2   878.1    0.00 
 184   22:00   0.00   72.6    56    2.6   316     4.4   878.1    0.00 
 184   22:10   0.00   73.0    54    3.4   298     4.9   878.0    0.00 
 184   22:20   0.00   72.6    54    3.7   290     4.7   877.9    0.00 
 184   22:30   0.00   72.9    54    2.1   309     2.9   878.0    0.00 
 184   22:40   0.00   72.2    56    1.2   257     2.8   878.0    0.00 
 184   22:50   0.00   71.2    62    3.3   237     4.5   878.0    0.00 
 184   23:00   0.00   71.6    59    1.4   199     2.9   878.0    0.00 
 184   23:10   0.00   71.6    62    3.2   242     4.9   878.0    0.00 
 184   23:20   0.00   73.1    55    3.4   281     5.4   878.0    0.00 
 184   23:30   0.00   72.6    56    2.7   301     4.1   878.1    0.00 
 184   23:40   0.00   72.9    56    2.0   289     3.6   878.1    0.00 
 184   23:50   0.00   72.6    55    4.5   278     5.7   878.0    0.00 
 185    0:00   0.00   72.4    56    3.3   288     5.2   878.0    0.00 
 185    0:10   0.00   71.3    59    4.2   294     5.6   878.0    0.00 
 185    0:20   0.00   70.9    60    4.3   300     5.8   877.9    0.00 
 185    0:30   0.00   72.1    55    5.3   294     7.1   877.8    0.00 
 185    0:40   0.00   71.8    54    6.0   274     7.5   877.7    0.00 
 185    0:50   0.00   71.5    55    3.8   293     7.2   877.7    0.00 
 185    1:00   0.00   70.8    56    3.8   283     5.0   877.7    0.00 
 185    1:10   0.00   70.6    56    4.2   274     5.4   877.7    0.00 
 185    1:20   0.00   70.7    55    4.5   273     6.1   877.7    0.00 
 185    1:30   0.00   70.8    55    4.2   272     5.3   877.7    0.00 
 185    1:40   0.00   70.8    55    5.1   279     7.7   877.7    0.00 
 185    1:50   0.00   70.4    57    3.7   285     6.5   877.7    0.00 
 185    2:00   0.00   70.1    57    3.9   272     4.9   877.7    0.00 
 185    2:10   0.00   70.1    56    4.2   280     5.6   877.6    0.00 
 185    2:20   0.00   70.2    56    1.6   306     3.6   877.6    0.00 
 185    2:30   0.00   70.7    54    1.7   307     2.6   877.6    0.00 
 185    2:40   0.00   70.8    54    2.5   291     2.8   877.5    0.00 
 185    2:50   0.00   70.3    55    2.8   294     3.3   877.5    0.00 
 185    3:00   0.00   70.3    54    1.8   308     2.3   877.5    0.00 
 185    3:10   0.00   69.8    58    2.6   317     4.1   877.3    0.00 
 185    3:20   0.00   68.8    62    2.5   321     3.7   877.3    0.00 
 185    3:30   0.00   68.1    63    2.2     7     3.9   877.4    0.00 
 185    3:40   0.00   67.7    62    2.0   360     2.7   877.2    0.00 
 185    3:50   0.00   67.4    65    1.5   319     2.8   877.1    0.00 
 185    4:00   0.00   67.4    64    0.0   333     0.3   877.2    0.00 
 185    4:10   0.00   67.0    63    0.0     0     0.0   877.2    0.00 
 185    4:20   0.00   66.9    64    1.6   200     2.8   877.3    0.00 
 185    4:30   0.00   66.6    66    2.6   165     3.9   877.3    0.00 
 185    4:40   0.00   65.9    68    1.7   138     3.1   877.4    0.00 
 185    4:50   0.01   65.9    68    1.8   100     2.6   877.5    0.00 
 185    5:00   0.02   65.9    68    2.2   168     4.5   877.5    0.00 
 185    5:10   0.03   66.2    71    1.6   192     2.3   877.4    0.00 
 185    5:20   0.04   66.7    72    0.8   239     2.1   877.3    0.00 
 185    5:30   0.07   69.3    64    3.4   265     6.2   877.2    0.00 
 185    5:40   0.08   71.9    59    5.2   269     9.2   877.4    0.00 
 185    5:50   0.08   72.8    58    4.6   274     7.2   877.6    0.00 
 185    6:00   0.08   73.0    60    3.6   266     5.0   877.7    0.00 
 185    6:10   0.08   73.4    59    3.1   270     5.4   877.8    0.00 
 185    6:20   0.09   73.7    61    2.6   238     3.7   877.9    0.00 
 185    6:30   0.08   73.9    60    3.5   217     5.0   878.0    0.00 
 185    6:40   0.07   73.6    62    3.9   219     5.5   878.0    0.00 
 185    6:50   0.07   73.7    61    2.9   227     4.4   878.1    0.00 
 185    7:00   0.09   73.8    63    2.3   213     3.1   878.2    0.00 
 185    7:10   0.09   74.4    62    2.9   205     4.1   878.4    0.00 
 185    7:20   0.08   74.7    60    3.5   183     4.5   878.6    0.00 
 185    7:30   0.08   74.4    60    2.0   253     3.9   878.5    0.00 
 185    7:40   0.09   74.3    61    5.6   238     8.7   878.5    0.00 
 185    7:50   0.17   74.7    58    6.3   252     9.0   878.4    0.00 
 185    8:00   0.24   76.7    53    7.3   294    13.3   878.3    0.00 
 185    8:10   0.28   78.2    48    2.6   254     8.3   878.8    0.00 
 185    8:20   0.52   81.2    43    2.3   189     6.2   879.0    0.00 
 185    8:30   0.42   81.0    45    4.8   259     8.0   878.9    0.00 
 185    8:40   0.34   80.4    45    4.8   264     6.7   878.8    0.00 
 185    8:50   0.48   81.2    46    4.7   293     7.4   878.6    0.00 
 185    9:00   0.42   81.4    45    6.9   294    10.4   878.6    0.00 
 185    9:10   0.44   81.1    45    7.9   284    12.3   878.5    0.00 
 185    9:20   0.35   80.7    46    7.4   312    10.5   878.5    0.00 
 185    9:30   0.35   80.7    44    7.0   301    11.1   878.5    0.00 
 185    9:40   0.53   82.8    42    4.9   293     8.0   878.5    0.00 
 185    9:50   0.37   82.6    42    5.2   251     8.6   878.6    0.00 
 185   10:00   0.31   82.3    43    4.4   226    10.5   878.6    0.00 
 185   10:10   0.32   82.6    39    6.9   209    16.1   878.8    0.00 
 185   10:20   0.51   82.3    40    8.8   212    13.0   878.9    0.00 
 185   10:30   0.56   83.7    36    9.1   207    14.8   878.8    0.00 
 185   10:40   0.79   84.1    37    8.9   221    15.1   878.6    0.00 
 185   10:50   0.75   86.0    33    8.9   196    14.4   878.5    0.00 
 185   11:00   0.60   86.6    32    7.4   172    12.9   878.5    0.00 
 185   11:10   0.60   86.7    31    8.7   170    14.5   878.5    0.00 
 185   11:20   0.40   85.9    32    8.6   199    18.6   878.5    0.00 
 185   11:30   0.29   84.2    31   10.4   208    15.7   878.5    0.00 
 185   11:40   0.15   82.0    36    7.0   220    12.8   878.5    0.00 
 185   11:50   0.12   81.1    34    8.7   229    15.5   878.5    0.00 
 185   12:00   0.12   81.1    33    8.6   231    14.6   878.5    0.00 
 185   12:10   0.13   81.5    32    4.0   244    10.6   878.7    0.00 
 185   12:20   0.10   82.4    31    1.6   233     5.2   879.0    0.00 
 185   12:30   0.07   81.8    33    4.2   145     6.8   879.5    0.00 
 185   12:40   0.05   79.3    41    5.6   127     8.2   880.0    0.00 
 185   12:50   0.04   76.9    49    7.3   120    14.9   880.3    0.00 
 185   13:00   0.02   72.6    64   17.6   108    27.1   880.7    0.05 
 185   13:10   0.02   67.6    78   14.9   127    29.2   881.4    0.04 
 185   13:20   0.02   67.0    81    8.4   142    13.9   881.7    0.00 
 185   13:30   0.02   67.2    79   10.4   131    15.9   881.7    0.01 
 185   13:40   0.02   66.8    80   10.1   125    15.9   881.5    0.01 

Return to south Mason Valley graphs page.


Western Regional Climate Center,wrcc@dri.edu